createdAt,value
2019-05-26T00:01:23.733Z,12.87
2019-05-26T00:04:37.445Z,15.60
2019-05-26T00:07:51.272Z,13.33
2019-05-26T00:11:04.764Z,13.97
2019-05-26T00:14:18.268Z,14.07
2019-05-26T00:17:31.807Z,14.73
2019-05-26T00:20:45.397Z,13.77
2019-05-26T00:23:59.007Z,13.67
2019-05-26T00:27:12.497Z,13.83
2019-05-26T00:30:26.110Z,16.90
2019-05-26T00:33:39.603Z,14.23
2019-05-26T00:36:53.454Z,14.43
2019-05-26T00:40:09.174Z,12.53
2019-05-26T00:43:22.879Z,13.13
2019-05-26T00:46:36.527Z,12.13
2019-05-26T00:49:50.117Z,11.53
2019-05-26T00:53:04.225Z,13.87
2019-05-26T00:56:17.852Z,13.57
2019-05-26T00:59:31.552Z,14.27
2019-05-26T01:02:45.470Z,14.20
2019-05-26T01:05:59.352Z,15.13
2019-05-26T01:09:12.941Z,14.60
2019-05-26T01:12:26.432Z,13.70
2019-05-26T01:15:39.938Z,12.30
2019-05-26T01:18:53.440Z,14.77
2019-05-26T01:22:06.957Z,14.80
2019-05-26T01:25:20.868Z,14.40
2019-05-26T01:28:34.357Z,13.47
2019-05-26T01:31:48.373Z,12.40
2019-05-26T01:35:02.083Z,14.23
2019-05-26T01:38:23.890Z,13.47
2019-05-26T01:41:31.892Z,13.90
2019-05-26T01:44:45.384Z,15.30
2019-05-26T01:47:58.888Z,13.50
2019-05-26T01:51:12.643Z,13.70
2019-05-26T01:54:26.280Z,13.27
2019-05-26T01:57:39.707Z,14.57
2019-05-26T02:00:53.486Z,14.80
2019-05-26T02:04:06.970Z,13.63
2019-05-26T02:07:20.457Z,13.47
2019-05-26T02:10:33.952Z,12.87
2019-05-26T02:13:47.520Z,14.00
2019-05-26T02:17:01.453Z,13.50
2019-05-26T02:20:17.010Z,14.87
2019-05-26T02:23:30.488Z,16.70
2019-05-26T02:26:43.996Z,12.93
2019-05-26T02:29:57.474Z,15.40
2019-05-26T02:33:11.068Z,13.87
2019-05-26T02:36:25.091Z,12.50
2019-05-26T02:39:38.572Z,13.20
2019-05-26T02:42:52.258Z,12.93
2019-05-26T02:46:06.129Z,13.87
2019-05-26T02:49:19.624Z,15.10
2019-05-26T02:52:33.108Z,13.43
2019-05-26T02:55:47.076Z,12.40
2019-05-26T02:59:00.660Z,14.37
2019-05-26T03:02:14.554Z,14.10
2019-05-26T03:05:28.472Z,18.07
2019-05-26T03:08:44.242Z,14.20
2019-05-26T03:11:59.413Z,11.80
2019-05-26T03:15:14.801Z,11.07
2019-05-26T03:18:31.166Z,10.97
2019-05-26T03:21:47.635Z,10.60
2019-05-26T03:25:03.409Z,11.47
2019-05-26T03:28:16.920Z,12.83
2019-05-26T03:31:30.720Z,11.17
2019-05-26T03:34:44.244Z,12.60
2019-05-26T03:37:57.716Z,13.63
2019-05-26T03:41:11.209Z,12.67
2019-05-26T03:44:24.705Z,12.43
2019-05-26T03:47:38.620Z,12.57
2019-05-26T03:50:52.105Z,12.83
2019-05-26T03:54:05.794Z,12.73
2019-05-26T03:57:19.281Z,11.40
2019-05-26T04:00:33.178Z,12.97
2019-05-26T04:03:46.690Z,11.40
2019-05-26T04:07:00.162Z,10.47
2019-05-26T04:10:14.140Z,11.37
2019-05-26T04:13:27.933Z,11.13
2019-05-26T04:16:41.423Z,14.97
2019-05-26T04:19:54.922Z,9.97
2019-05-26T04:23:08.416Z,11.57
2019-05-26T04:26:22.001Z,10.60
2019-05-26T04:29:35.795Z,11.23
2019-05-26T04:32:49.406Z,10.93
2019-05-26T04:36:03.298Z,12.53
2019-05-26T04:39:17.143Z,11.10
2019-05-26T04:42:30.616Z,11.00
2019-05-26T04:45:44.126Z,10.40
2019-05-26T04:48:57.618Z,11.77
2019-05-26T04:52:11.232Z,12.03
2019-05-26T04:55:24.732Z,12.20
2019-05-26T04:58:38.323Z,11.97
2019-05-26T05:01:51.807Z,11.87
2019-05-26T05:05:05.644Z,10.77
2019-05-26T05:08:19.169Z,10.73
2019-05-26T05:11:33.294Z,12.17
2019-05-26T05:16:38.347Z,11.70
2019-05-26T05:19:52.060Z,12.03
2019-05-26T05:23:05.793Z,11.80
2019-05-26T05:26:19.701Z,10.00
2019-05-26T05:29:33.573Z,10.73
2019-05-26T05:32:47.341Z,9.73
2019-05-26T05:36:00.933Z,12.33
2019-05-26T05:39:14.536Z,13.03
2019-05-26T05:42:28.277Z,9.83
2019-05-26T05:45:41.875Z,11.97
2019-05-26T05:48:55.618Z,10.63
2019-05-26T05:52:09.200Z,10.57
2019-05-26T05:55:22.681Z,13.00
2019-05-26T05:58:36.166Z,9.90
2019-05-26T06:01:49.802Z,11.10
2019-05-26T06:05:04.100Z,10.90
2019-05-26T06:08:17.753Z,9.20
2019-05-26T06:11:31.406Z,9.47
2019-05-26T06:14:45.839Z,10.17
2019-05-26T06:17:59.674Z,8.37
2019-05-26T06:21:13.188Z,10.03
2019-05-26T06:24:26.780Z,10.67
2019-05-26T06:27:40.281Z,8.50
2019-05-26T06:30:54.246Z,9.60
2019-05-26T06:34:07.779Z,9.37
2019-05-26T06:37:21.427Z,12.77
2019-05-26T06:40:34.956Z,9.77
2019-05-26T06:43:48.722Z,9.17
2019-05-26T06:47:02.337Z,9.10
2019-05-26T06:50:16.315Z,9.40
2019-05-26T06:53:29.834Z,10.50
2019-05-26T06:56:43.319Z,10.77
2019-05-26T06:59:56.827Z,10.90
2019-05-26T07:03:10.304Z,10.53
2019-05-26T07:06:23.926Z,8.03
2019-05-26T07:09:37.401Z,8.00
2019-05-26T07:12:50.896Z,7.47
2019-05-26T07:16:04.434Z,11.37
2019-05-26T07:19:17.921Z,7.60
2019-05-26T07:22:31.433Z,8.10
2019-05-26T07:25:44.930Z,10.63
2019-05-26T07:28:58.404Z,9.07
2019-05-26T07:32:12.194Z,9.10
2019-05-26T07:35:25.921Z,9.03
2019-05-26T07:38:39.834Z,8.63
2019-05-26T07:42:08.778Z,11.07
2019-05-26T07:45:10.026Z,9.07
2019-05-26T07:48:23.460Z,7.53
2019-05-26T07:51:37.067Z,9.63
2019-05-26T07:54:50.542Z,9.67
2019-05-26T07:58:04.249Z,8.17
2019-05-26T08:01:17.849Z,8.43
2019-05-26T08:04:31.625Z,7.60
2019-05-26T08:07:45.406Z,7.87
2019-05-26T08:10:58.913Z,9.13
2019-05-26T08:14:12.510Z,7.50
2019-05-26T08:17:26.585Z,7.50
2019-05-26T08:20:42.689Z,7.53
2019-05-26T08:23:56.179Z,7.00
2019-05-26T08:27:09.718Z,7.20
2019-05-26T08:30:23.336Z,6.93
2019-05-26T08:33:36.884Z,7.00
2019-05-26T08:36:50.309Z,7.17
2019-05-26T08:40:19.171Z,6.93
2019-05-26T08:43:32.673Z,6.50
2019-05-26T08:46:46.271Z,7.00
2019-05-26T08:49:59.775Z,8.80
2019-05-26T08:53:13.363Z,6.30
2019-05-26T08:56:26.973Z,7.83
2019-05-26T08:59:40.802Z,6.13
2019-05-26T09:02:54.417Z,6.67
2019-05-26T09:06:08.171Z,7.00
2019-05-26T09:09:21.789Z,5.77
2019-05-26T09:12:35.303Z,6.13
2019-05-26T09:15:48.799Z,5.40
2019-05-26T09:19:02.541Z,4.67
2019-05-26T09:22:16.029Z,6.10
2019-05-26T09:25:29.532Z,5.20
2019-05-26T09:28:43.178Z,5.43
2019-05-26T09:31:56.702Z,4.60
2019-05-26T09:35:10.547Z,5.87
2019-05-26T09:38:24.238Z,7.27
2019-05-26T09:41:37.769Z,5.53
2019-05-26T09:44:51.238Z,5.67
2019-05-26T09:48:04.733Z,4.97
2019-05-26T09:51:18.354Z,5.00
2019-05-26T09:54:31.877Z,6.80
2019-05-26T09:57:45.373Z,4.73
2019-05-26T10:00:58.985Z,5.03
2019-05-26T10:04:12.718Z,5.83
2019-05-26T10:07:26.653Z,6.93
2019-05-26T10:10:40.274Z,6.23
2019-05-26T10:13:53.795Z,5.47
2019-05-26T10:17:07.407Z,5.67
2019-05-26T10:20:21.125Z,6.17
2019-05-26T10:23:34.894Z,5.80
2019-05-26T10:26:48.557Z,5.40
2019-05-26T10:30:05.456Z,4.83
2019-05-26T10:33:19.202Z,4.87
2019-05-26T10:36:32.850Z,5.77
2019-05-26T10:39:46.385Z,5.43
2019-05-26T10:43:00.231Z,5.07
2019-05-26T10:46:14.026Z,5.33
2019-05-26T10:49:27.667Z,5.30
2019-05-26T10:52:41.297Z,4.90
2019-05-26T10:55:54.831Z,5.43
2019-05-26T10:59:08.748Z,4.33
2019-05-26T11:02:22.394Z,4.87
2019-05-26T11:05:35.902Z,4.93
2019-05-26T11:08:49.438Z,3.73
2019-05-26T11:12:03.366Z,4.07
2019-05-26T11:15:17.645Z,4.10
2019-05-26T11:18:31.184Z,4.03
2019-05-26T11:21:44.721Z,3.67
2019-05-26T11:24:58.370Z,3.17
2019-05-26T11:28:12.277Z,3.00
2019-05-26T11:31:25.829Z,2.83
2019-05-26T11:34:39.350Z,2.50
2019-05-26T11:37:53.019Z,3.33
2019-05-26T11:41:06.677Z,3.13
2019-05-26T11:44:20.323Z,2.50
2019-05-26T11:47:34.053Z,2.60
2019-05-26T11:50:47.728Z,3.37
2019-05-26T11:54:01.268Z,3.50
2019-05-26T11:57:15.266Z,2.90
2019-05-26T12:00:29.857Z,2.53
2019-05-26T12:03:43.689Z,2.57
2019-05-26T12:06:57.243Z,2.13
2019-05-26T12:10:14.198Z,3.40
2019-05-26T12:16:39.206Z,2.77
2019-05-26T12:19:52.799Z,2.67
2019-05-26T12:23:06.430Z,2.50
2019-05-26T12:26:20.018Z,2.43
2019-05-26T12:29:33.573Z,2.33
2019-05-26T12:32:47.135Z,2.80
2019-05-26T12:36:01.057Z,2.67
2019-05-26T12:39:14.867Z,2.63
2019-05-26T12:42:28.395Z,2.83
2019-05-26T12:45:41.865Z,2.13
2019-05-26T12:48:55.357Z,3.10
2019-05-26T12:52:09.190Z,2.77
2019-05-26T12:55:23.439Z,3.03
2019-05-26T12:58:37.381Z,3.37
2019-05-26T13:01:51.028Z,2.60
2019-05-26T13:05:05.253Z,2.10
2019-05-26T13:08:18.761Z,2.23
2019-05-26T13:11:32.579Z,2.30
2019-05-26T13:14:46.375Z,3.30
2019-05-26T13:17:59.877Z,3.77
2019-05-26T13:21:13.370Z,2.27
2019-05-26T13:24:26.926Z,1.80
2019-05-26T13:27:40.655Z,1.97
2019-05-26T13:30:54.295Z,1.93
2019-05-26T13:34:08.617Z,1.70
2019-05-26T13:37:22.580Z,1.70
2019-05-26T13:40:36.330Z,5.20
2019-05-26T13:43:49.885Z,2.47
2019-05-26T13:47:03.504Z,2.10
2019-05-26T13:50:18.225Z,2.53
2019-05-26T13:53:31.909Z,1.93
2019-05-26T13:56:45.480Z,2.23
2019-05-26T13:59:59.184Z,2.17
2019-05-26T14:03:13.562Z,1.80
2019-05-26T14:06:27.397Z,4.70
2019-05-26T14:09:41.427Z,2.03
2019-05-26T14:12:54.955Z,2.30
2019-05-26T14:16:09.460Z,2.20
2019-05-26T14:19:28.629Z,2.33
2019-05-26T14:22:42.527Z,5.37
2019-05-26T14:25:56.045Z,1.83
2019-05-26T14:29:09.576Z,1.90
2019-05-26T14:32:23.196Z,2.10
2019-05-26T14:35:37.214Z,2.77
2019-05-26T14:38:51.110Z,2.70
2019-05-26T14:42:04.869Z,1.83
2019-05-26T14:45:19.200Z,2.20
2019-05-26T14:48:32.804Z,2.63
2019-05-26T14:51:46.349Z,3.17
2019-05-26T14:55:00.416Z,1.90
2019-05-26T14:58:16.425Z,2.53
2019-05-26T15:01:29.854Z,2.50
2019-05-26T15:04:43.391Z,1.60
2019-05-26T15:07:57.018Z,2.30
2019-05-26T15:11:10.549Z,2.23
2019-05-26T15:14:24.241Z,2.83
2019-05-26T15:17:37.889Z,2.20
2019-05-26T15:20:51.642Z,2.30
2019-05-26T15:24:05.354Z,2.00
2019-05-26T15:27:19.130Z,2.70
2019-05-26T15:30:32.755Z,2.83
2019-05-26T15:33:46.247Z,1.87
2019-05-26T15:36:59.742Z,1.90
2019-05-26T15:40:14.392Z,1.70
2019-05-26T15:43:29.332Z,1.50
2019-05-26T15:46:42.838Z,2.27
2019-05-26T15:49:56.359Z,1.63
2019-05-26T15:53:10.095Z,1.60
2019-05-26T15:56:23.687Z,1.93
2019-05-26T15:59:37.376Z,1.67
2019-05-26T16:02:50.987Z,2.03
2019-05-26T16:06:05.389Z,1.70
2019-05-26T16:09:18.918Z,2.13
2019-05-26T16:12:32.539Z,3.10
2019-05-26T16:15:46.185Z,5.97
2019-05-26T16:18:59.698Z,3.10
2019-05-26T16:22:13.461Z,2.20
2019-05-26T16:25:27.078Z,2.93
2019-05-26T16:28:40.759Z,2.03
2019-05-26T16:31:54.436Z,2.70
2019-05-26T16:35:08.613Z,2.33
2019-05-26T16:38:22.254Z,3.83
2019-05-26T16:41:35.926Z,1.50
2019-05-26T16:44:49.520Z,1.47
2019-05-26T16:48:03.240Z,1.07
2019-05-26T16:51:17.504Z,3.60
2019-05-26T16:54:31.131Z,1.30
2019-05-26T16:57:44.870Z,1.87
2019-05-26T17:00:58.511Z,1.10
2019-05-26T17:04:12.147Z,2.50
2019-05-26T17:07:26.408Z,1.20
2019-05-26T17:10:40.390Z,1.53
2019-05-26T17:13:54.066Z,1.30
2019-05-26T17:17:14.587Z,1.67
2019-05-26T17:20:23.389Z,1.67
2019-05-26T17:23:36.937Z,3.27
2019-05-26T17:26:50.584Z,1.50
2019-05-26T17:30:05.335Z,1.80
2019-05-26T17:33:19.039Z,1.40
2019-05-26T17:36:32.820Z,2.20
2019-05-26T17:39:46.740Z,4.20
2019-05-26T17:43:00.379Z,1.13
2019-05-26T17:46:15.293Z,1.10
2019-05-26T17:49:28.960Z,2.40
2019-05-26T17:52:42.502Z,2.60
2019-05-26T17:55:56.360Z,2.10
2019-05-26T17:59:09.959Z,1.40
2019-05-26T18:02:23.901Z,1.73
2019-05-26T18:05:37.386Z,2.80
2019-05-26T18:08:50.974Z,1.17
2019-05-26T18:12:04.760Z,2.87
2019-05-26T18:15:18.489Z,1.50
2019-05-26T18:18:32.093Z,1.77
2019-05-26T18:21:45.597Z,1.93
2019-05-26T18:24:59.628Z,1.87
2019-05-26T18:28:13.235Z,1.60
2019-05-26T18:31:29.081Z,1.93
2019-05-26T18:34:42.493Z,1.50
2019-05-26T18:37:56.337Z,1.77
2019-05-26T18:41:09.849Z,4.67
2019-05-26T18:44:23.526Z,2.57
2019-05-26T18:47:37.054Z,2.00
2019-05-26T18:50:50.683Z,1.83
2019-05-26T18:54:04.457Z,3.77
2019-05-26T18:57:18.368Z,2.07
2019-05-26T19:00:32.504Z,2.37
2019-05-26T19:03:45.984Z,3.37
2019-05-26T19:06:59.481Z,2.83
2019-05-26T19:14:04.950Z,2.90
2019-05-26T19:17:18.856Z,1.90
2019-05-26T19:20:32.383Z,2.40
2019-05-26T19:23:46.021Z,3.37
2019-05-26T19:26:59.478Z,2.10
2019-05-26T19:30:13.720Z,3.23
2019-05-26T19:33:27.336Z,2.73
2019-05-26T19:36:40.853Z,1.90
2019-05-26T19:39:54.790Z,2.40
2019-05-26T19:43:08.291Z,3.00
2019-05-26T19:46:21.908Z,4.43
2019-05-26T19:49:35.872Z,2.77
2019-05-26T19:52:50.137Z,5.07
2019-05-26T19:56:04.301Z,1.80
2019-05-26T19:59:18.349Z,3.00
2019-05-26T20:02:31.836Z,1.80
2019-05-26T20:05:45.340Z,4.00
2019-05-26T20:08:58.924Z,3.33
2019-05-26T20:12:12.566Z,1.80
2019-05-26T20:15:26.381Z,2.77
2019-05-26T20:18:39.972Z,3.30
2019-05-26T20:21:53.986Z,3.50
2019-05-26T20:25:08.226Z,5.40
2019-05-26T20:28:21.706Z,3.00
2019-05-26T20:31:35.210Z,3.33
2019-05-26T20:34:48.829Z,2.10
2019-05-26T20:38:02.532Z,2.57
2019-05-26T20:41:16.061Z,2.30
2019-05-26T20:44:29.560Z,5.30
2019-05-26T20:47:43.132Z,1.87
2019-05-26T20:50:56.966Z,3.70
2019-05-26T20:54:10.483Z,3.30
2019-05-26T20:57:24.077Z,2.20
2019-05-26T21:00:37.569Z,3.90
2019-05-26T21:03:51.061Z,2.73
2019-05-26T21:07:05.078Z,2.50
2019-05-26T21:10:18.731Z,3.20
2019-05-26T21:16:40.049Z,3.63
2019-05-26T21:19:53.652Z,2.67
2019-05-26T21:23:07.144Z,2.83
2019-05-26T21:26:20.645Z,3.73
2019-05-26T21:29:34.262Z,4.90
2019-05-26T21:32:47.834Z,5.77
2019-05-26T21:36:01.433Z,3.50
2019-05-26T21:39:14.905Z,3.70
2019-05-26T21:42:28.403Z,2.70
2019-05-26T21:45:41.902Z,3.23
2019-05-26T21:48:55.402Z,5.30
2019-05-26T21:52:09.189Z,5.70
2019-05-26T21:55:22.688Z,3.50
2019-05-26T21:58:36.269Z,2.50
2019-05-26T22:01:50.124Z,3.70
2019-05-26T22:05:04.928Z,2.87
2019-05-26T22:08:18.659Z,2.47
2019-05-26T22:11:32.174Z,2.97
2019-05-26T22:14:45.792Z,3.87
2019-05-26T22:17:59.602Z,3.70
2019-05-26T22:21:13.303Z,3.00
2019-05-26T22:24:27.070Z,4.70
2019-05-26T22:27:40.576Z,2.53
2019-05-26T22:30:54.060Z,2.63
2019-05-26T22:34:08.018Z,3.47
2019-05-26T22:37:21.501Z,4.90
2019-05-26T22:40:35.003Z,2.70
2019-05-26T22:43:48.500Z,3.40
2019-05-26T22:47:02.269Z,3.67
2019-05-26T22:50:16.053Z,2.80
2019-05-26T22:53:29.577Z,2.47
2019-05-26T22:56:43.053Z,3.93
2019-05-26T22:59:56.553Z,4.93
2019-05-26T23:03:10.147Z,5.87
2019-05-26T23:06:23.737Z,3.33
2019-05-26T23:09:37.238Z,3.27
2019-05-26T23:12:51.078Z,3.10
2019-05-26T23:16:04.676Z,4.70
2019-05-26T23:19:19.932Z,3.13
2019-05-26T23:22:33.919Z,4.20
2019-05-26T23:25:47.794Z,2.93
2019-05-26T23:29:01.294Z,3.90
2019-05-26T23:32:15.124Z,4.93
2019-05-26T23:35:28.641Z,3.77
2019-05-26T23:38:42.556Z,2.87
2019-05-26T23:41:56.052Z,2.80
2019-05-26T23:45:11.417Z,2.97
2019-05-26T23:48:24.999Z,3.50
2019-05-26T23:51:38.592Z,3.60
2019-05-26T23:54:52.073Z,3.90
2019-05-26T23:58:05.674Z,3.53
